Main page
METAR-TAF:

METAR-TAF

Airports :

Aurillac, France

Aurillac – Tronquières Airport

latitude: 44-53N, longitude: 002-25E, elevation: 639 m

Current weather observation

The report was made 16 minutes ago, at 16:30 UTC
Wind 7 kt from the Northwest
Temperature 21°C
Humidity 78%
Pressure 1017 hPa
Visibility 10 km or more
Few clouds at a height of 2200 ft
Scattered clouds at a height of 17000 ft

METAR: LFLW 221630Z AUTO 31007KT 9999 FEW022 SCT170 21/17 Q1017 TEMPO SCT026TCU

Time: 18:46 (16:46 UTC)

Forecast

The report was made 2 hours and 46 minutes ago, at 14:00 UTC
Forecast valid from 22 at 15 UTC to 22 at 24 UTC
Wind 5 kt from the West
Visibility 10 km or more
Broken clouds at a height of 2000 ft
Overcast at a height of 3300 ft
Probability 30% :
Temporary
from 22 at 15 UTC to 22 at 20 UTC
Scattered clouds at a height of 2600 ft, Towering cumulus.

TAF: LFLW 221400Z 2215/2224 28005KT 9999 BKN020 OVC033 PROB30 TEMPO 2215/2220 SCT026TCU

Weather observations and forecasts of more than 4000 airports (METAR and TAF reports).

The available stations are represented by yellow and red dots on the map.

Hover mouse over dot to see the name of the station.

Then click to see weather observations and forecasts.

To change the map : click on the green buttons with a black cross to zoom in, on the green button with a dash to zoom out, or on the green arrows for adjacent maps.


METAR-TAF: